Monument Pass, CO

7:39 AM MDT on May 23, 2017 (GMT -0600)
Monument Pass

Weather History for KMNH - December, 2013

Change the Weather History Date:

Tuesday, December 31, 2013

  Actual Average Record
Temperature  
Mean Temperature 36 °F -  
Max Temperature 50 °F - 59 °F (2005)
Min Temperature 21 °F - -13 °F (2014)
Degree Days  
Heating Degree Days 30    
Month to date heating degree days  
Cooling Degree Days 0    
Month to date cooling degree days  
Moisture  
Dew Point 16 °F    
Average Humidity 47    
Maximum Humidity 74    
Minimum Humidity 26    
Precipitation  
Precipitation 0.00 in - 0.00 in (2017)
Sea Level Pressure  
Sea Level Pressure 30.02 in    
Wind  
Wind Speed 8 mph (SSW)    
Max Wind Speed 14 mph    
Max Gust Speed 16 mph    
Visibility 10 miles    
Events      
T = Trace of Precipitation, MM = Missing Value Source: NWS Daily Summary

Daily Weather History Graph

Daily Weather History Graph

Search for Another Location

Airport or City:

Trip Planner

Search our weather history database for the weather conditions in past years. The results will help you decide how hot, cold, wet, or windy it might be!

Date:

Astronomy

Dec. 31, 2013 Rise Set
Actual Time 7:17 AM MST 4:45 PM MST
Civil Twilight 6:47 AM MST 5:15 PM MST
Nautical Twilight 6:14 AM MST 5:49 PM MST
Astronomical Twilight 5:41 AM MST 6:21 PM MST
Moon 6:13 AM MST (12/31) 4:24 PM MST (12/31)
Length of Visible Light 10h 27m
Length of Day
9h 27m
Waning Crescent, 1% of the Moon is Illuminated
Dec 31
Waning Crescent
Jan 1
New
Jan 7
First Quarter
Jan 15
Full
Jan 23
Last Quarter

Hourly Weather History & Observations

Time (MST) Temp. Windchill Dew Point Humidity Pressure Visibility Wind Dir Wind Speed Gust Speed Precip Events Conditions
12:12 AM 21.2 °F 10.1 °F 12.2 °F 68% 30.10 in 10.0 mi South 10.4 mph - N/A   Clear
12:32 AM 23.0 °F 13.1 °F 12.2 °F 63% 30.08 in 10.0 mi SSW 9.2 mph - N/A   Clear
12:52 AM 26.6 °F 17.5 °F 12.2 °F 55% 30.08 in 10.0 mi SSW 9.2 mph - N/A   Clear
1:12 AM 28.4 °F 19.7 °F 10.4 °F 47% 30.08 in 10.0 mi SSW 9.2 mph - N/A   Clear
1:31 AM 28.4 °F 19.7 °F 10.4 °F 47% 30.07 in 10.0 mi SSW 9.2 mph - N/A   Clear
1:52 AM 30.2 °F 21.3 °F 8.6 °F 40% 30.07 in 10.0 mi SW 10.4 mph - N/A   Clear
2:12 AM 30.2 °F 21.3 °F 8.6 °F 40% 30.07 in 10.0 mi SW 10.4 mph - N/A   Clear
2:31 AM 32.0 °F 24.2 °F 6.8 °F 35% 30.07 in 10.0 mi SW 9.2 mph - N/A   Clear
2:52 AM 32.0 °F 23.6 °F 8.6 °F 38% 30.06 in 10.0 mi SW 10.4 mph - N/A   Clear
3:12 AM 32.0 °F 22.5 °F 8.6 °F 38% 30.05 in 10.0 mi SW 12.7 mph - N/A   Clear
3:32 AM 32.0 °F 23.6 °F 8.6 °F 38% 30.05 in 10.0 mi SW 10.4 mph - N/A   Clear
3:52 AM 32.0 °F 23.6 °F 8.6 °F 38% 30.05 in 10.0 mi SW 10.4 mph - N/A   Clear
4:12 AM 32.0 °F 23.0 °F 8.6 °F 38% 30.03 in 10.0 mi SW 11.5 mph - N/A   Clear
4:32 AM 32.0 °F 23.6 °F 10.4 °F 41% 30.04 in 10.0 mi SW 10.4 mph - N/A   Clear
4:52 AM 32.0 °F 24.8 °F 10.4 °F 41% 30.03 in 10.0 mi SW 8.1 mph - N/A   Clear
5:12 AM 32.0 °F 24.8 °F 10.4 °F 41% 30.03 in 10.0 mi SW 8.1 mph - N/A   Clear
5:32 AM 32.0 °F 24.8 °F 12.2 °F 44% 30.03 in 10.0 mi WSW 8.1 mph - N/A   Clear
5:52 AM 30.2 °F 25.4 °F 12.2 °F 47% 30.04 in 10.0 mi West 4.6 mph - N/A   Clear
6:12 AM 30.2 °F 25.4 °F 12.2 °F 47% 30.04 in 10.0 mi West 4.6 mph - N/A   Clear
6:32 AM 32.0 °F 25.6 °F 12.2 °F 44% 30.04 in 10.0 mi SSW 6.9 mph - N/A   Clear
6:52 AM 26.6 °F 20.0 °F 12.2 °F 55% 30.03 in 10.0 mi South 5.8 mph - N/A   Clear
7:12 AM 28.4 °F 23.3 °F 12.2 °F 51% 30.04 in 10.0 mi SSW 4.6 mph - N/A   Clear
7:32 AM 23.0 °F 18.4 °F 12.2 °F 63% 30.04 in 10.0 mi SSE 3.5 mph - N/A   Clear
7:52 AM 26.6 °F 22.6 °F 12.2 °F 55% 30.05 in 10.0 mi ESE 3.5 mph - N/A   Clear
8:12 AM 26.6 °F 22.6 °F 14.0 °F 59% 30.05 in 10.0 mi SSW 3.5 mph - N/A   Clear
8:32 AM 32.0 °F 28.7 °F 15.8 °F 51% 30.05 in 10.0 mi South 3.5 mph - N/A   Clear
8:52 AM 35.6 °F 31.7 °F 15.8 °F 44% 30.05 in 10.0 mi SSW 4.6 mph - N/A   Clear
9:12 AM 37.4 °F 31.4 °F 15.8 °F 41% 30.04 in 10.0 mi SW 8.1 mph - N/A   Clear
9:31 AM 42.8 °F 39.3 °F 17.6 °F 36% 30.05 in 10.0 mi WSW 5.8 mph - N/A   Clear
9:52 AM 44.6 °F 39.2 °F 17.6 °F 34% 30.05 in 10.0 mi WSW 10.4 mph - N/A   Clear
10:12 AM 46.4 °F 42.9 °F 15.8 °F 29% 30.05 in 10.0 mi West 6.9 mph - N/A   Clear
10:32 AM 46.4 °F 42.9 °F 14.0 °F 27% 30.05 in 10.0 mi West 6.9 mph - N/A   Clear
10:52 AM 46.4 °F 41.5 °F 15.8 °F 29% 30.04 in 10.0 mi West 10.4 mph - N/A   Clear
11:12 AM 48.2 °F - 17.6 °F 30% 30.03 in 10.0 mi WNW 10.4 mph - N/A   Clear
11:32 AM 46.4 °F 40.7 °F 17.6 °F 32% 30.03 in 10.0 mi West 12.7 mph 16.1 mph N/A   Clear
11:52 AM 48.2 °F - 17.6 °F 30% 30.02 in 10.0 mi WNW 10.4 mph - N/A   Clear
12:12 PM 50.0 °F - 17.6 °F 28% 30.01 in 10.0 mi WNW 8.1 mph - N/A   Clear
12:32 PM 50.0 °F - 17.6 °F 28% 30.00 in 10.0 mi West 6.9 mph - N/A   Clear
12:51 PM 50.0 °F - 17.6 °F 28% 30.00 in 10.0 mi NW 8.1 mph - N/A   Clear
1:11 PM 50.0 °F - 17.6 °F 28% 30.00 in 10.0 mi NNW 3.5 mph - N/A   Clear
1:32 PM 50.0 °F - 15.8 °F 26% 29.99 in 10.0 mi NNW 5.8 mph - N/A   Clear
1:52 PM 50.0 °F - 15.8 °F 26% 29.99 in 10.0 mi North 4.6 mph - N/A   Clear
2:11 PM 48.2 °F - 15.8 °F 27% 29.99 in 10.0 mi North 4.6 mph - N/A   Clear
2:32 PM 48.2 °F - 15.8 °F 27% 29.99 in 10.0 mi North 3.5 mph - N/A   Clear
2:52 PM 46.4 °F - 14.0 °F 27% 29.99 in 10.0 mi Calm Calm - N/A   Clear
3:11 PM 46.4 °F 45.2 °F 17.6 °F 32% 30.00 in 10.0 mi North 3.5 mph - N/A   Clear
3:32 PM 44.6 °F 43.1 °F 17.6 °F 34% 30.01 in 10.0 mi NE 3.5 mph - N/A   Clear
3:52 PM 41.0 °F 36.4 °F 19.4 °F 42% 30.02 in 10.0 mi NE 6.9 mph - N/A   Clear
4:11 PM 39.2 °F 35.9 °F 19.4 °F 45% 30.02 in 10.0 mi ENE 4.6 mph - N/A   Clear
4:32 PM 39.2 °F 35.0 °F 19.4 °F 45% 30.02 in 10.0 mi ENE 5.8 mph - N/A   Clear
4:52 PM 35.6 °F 31.7 °F 21.2 °F 56% 30.02 in 10.0 mi ESE 4.6 mph - N/A   Clear
5:12 PM 35.6 °F 31.7 °F 21.2 °F 56% 30.03 in 10.0 mi East 4.6 mph - N/A   Clear
5:32 PM 35.6 °F 31.7 °F 19.4 °F 52% 30.02 in 10.0 mi East 4.6 mph - N/A   Clear
5:52 PM 35.6 °F 31.7 °F 19.4 °F 52% 30.03 in 10.0 mi ENE 4.6 mph - N/A   Clear
6:11 PM 35.6 °F 31.7 °F 19.4 °F 52% 30.02 in 10.0 mi ENE 4.6 mph - N/A   Clear
6:31 PM 35.6 °F 32.8 °F 17.6 °F 48% 30.02 in 10.0 mi East 3.5 mph - N/A   Clear
6:51 PM 32.0 °F 28.7 °F 19.4 °F 60% 30.03 in 10.0 mi ESE 3.5 mph - N/A   Clear
7:12 PM 32.0 °F 25.6 °F 19.4 °F 60% 30.02 in 10.0 mi ESE 6.9 mph - N/A   Clear
7:32 PM 32.0 °F 25.6 °F 19.4 °F 60% 30.02 in 10.0 mi SSE 6.9 mph - N/A   Clear
7:52 PM 28.4 °F 19.7 °F 21.2 °F 74% 30.01 in 10.0 mi South 9.2 mph - N/A   Clear
8:12 PM 30.2 °F 22.6 °F 19.4 °F 64% 30.01 in 10.0 mi South 8.1 mph - N/A   Clear
8:32 PM 28.4 °F 18.5 °F 21.2 °F 74% 30.00 in 10.0 mi South 11.5 mph - N/A   Clear
8:51 PM 30.2 °F 19.8 °F 21.2 °F 69% 29.99 in 10.0 mi South 13.8 mph - N/A   Clear
9:12 PM 32.0 °F 23.6 °F 21.2 °F 64% 29.98 in 10.0 mi South 10.4 mph - N/A   Scattered Clouds
9:32 PM 32.0 °F 23.6 °F 21.2 °F 64% 29.98 in 10.0 mi SSW 10.4 mph - N/A   Clear
9:52 PM 28.4 °F 19.7 °F 19.4 °F 69% 29.97 in 10.0 mi South 9.2 mph - N/A   Clear
10:12 PM 30.2 °F 21.3 °F 19.4 °F 64% 29.97 in 10.0 mi South 10.4 mph - N/A   Clear
10:32 PM 28.4 °F 19.1 °F 19.4 °F 69% 29.97 in 10.0 mi South 10.4 mph - N/A   Clear
10:52 PM 28.4 °F 19.7 °F 19.4 °F 69% 29.97 in 10.0 mi SSW 9.2 mph - N/A   Clear
11:12 PM 30.2 °F 22.6 °F 19.4 °F 64% 29.95 in 10.0 mi SSW 8.1 mph - N/A   Clear
11:32 PM 30.2 °F 22.6 °F 19.4 °F 64% 29.95 in 10.0 mi SSW 8.1 mph - N/A   Clear
11:52 PM 30.2 °F 22.6 °F 19.4 °F 64% 29.94 in 10.0 mi SSW 8.1 mph - N/A   Clear